createdAt,value
2023-03-25T00:00:47.083Z,13.66
2023-03-25T00:06:49.142Z,13.37
2023-03-25T00:12:52.616Z,13.62
2023-03-25T00:19:02.097Z,13.67
2023-03-25T00:25:04.566Z,13.16
2023-03-25T00:31:14.084Z,12.76
2023-03-25T00:37:22.569Z,11.97
2023-03-25T00:43:25.017Z,12.08
2023-03-25T00:49:29.504Z,11.57
2023-03-25T00:55:31.947Z,11.93
2023-03-25T01:01:36.451Z,11.50
2023-03-25T01:07:40.874Z,11.75
2023-03-25T01:13:43.353Z,11.71
2023-03-25T01:19:45.876Z,11.98
2023-03-25T01:25:48.458Z,11.75
2023-03-25T01:31:51.850Z,10.45
2023-03-25T01:37:55.018Z,11.69
2023-03-25T01:44:15.806Z,10.37
2023-03-25T01:50:19.303Z,11.17
2023-03-25T01:56:27.831Z,10.94
2023-03-25T02:02:37.312Z,11.57
2023-03-25T02:08:42.791Z,11.28
2023-03-25T02:14:47.269Z,11.24
2023-03-25T02:21:18.876Z,11.23
2023-03-25T02:27:42.391Z,11.22
2023-03-25T02:33:50.871Z,10.34
2023-03-25T02:40:00.368Z,10.81
2023-03-25T02:46:09.955Z,10.58
2023-03-25T02:52:18.400Z,8.97
2023-03-25T02:58:21.879Z,9.00
2023-03-25T03:04:24.356Z,7.95
2023-03-25T03:10:35.874Z,9.29
2023-03-25T03:17:00.658Z,8.59
2023-03-25T03:23:11.899Z,9.71
2023-03-25T03:29:20.554Z,9.16
2023-03-25T03:35:25.913Z,9.87
2023-03-25T03:41:30.349Z,9.83
2023-03-25T03:47:39.884Z,9.81
2023-03-25T03:53:51.354Z,8.86
2023-03-25T04:00:16.923Z,8.99
2023-03-25T04:06:28.535Z,9.29
2023-03-25T04:12:35.594Z,9.42
2023-03-25T04:18:38.368Z,9.46
2023-03-25T04:24:42.819Z,8.51
2023-03-25T04:30:49.300Z,9.18
2023-03-25T04:36:51.766Z,8.68
2023-03-25T04:42:54.224Z,9.53
2023-03-25T04:48:57.685Z,9.17
2023-03-25T04:55:00.183Z,9.87
2023-03-25T05:01:06.718Z,9.74
2023-03-25T05:07:12.135Z,9.73
2023-03-25T05:13:13.982Z,10.03
2023-03-25T05:19:19.052Z,9.77
2023-03-25T05:25:22.741Z,9.81
2023-03-25T05:31:26.113Z,9.98
2023-03-25T05:37:29.548Z,9.82
2023-03-25T05:43:37.042Z,9.66
2023-03-25T05:49:43.284Z,9.95
2023-03-25T05:55:47.960Z,9.80
2023-03-25T06:01:50.512Z,9.46
2023-03-25T06:08:01.455Z,10.15
2023-03-25T06:14:03.476Z,10.32
2023-03-25T06:20:14.988Z,9.91
2023-03-25T06:26:18.533Z,10.78
2023-03-25T06:32:21.056Z,9.74
2023-03-25T06:38:23.404Z,10.60
2023-03-25T06:44:25.879Z,11.03
2023-03-25T06:50:29.919Z,10.85
2023-03-25T06:56:31.876Z,11.10
2023-03-25T07:02:34.351Z,11.77
2023-03-25T07:08:36.819Z,11.69
2023-03-25T07:14:39.301Z,11.75
2023-03-25T07:20:46.201Z,12.64
2023-03-25T07:26:49.283Z,12.92
2023-03-25T07:32:52.817Z,13.38
2023-03-25T07:38:56.992Z,14.18
2023-03-25T07:44:59.268Z,14.65
2023-03-25T07:51:01.092Z,15.06
2023-03-25T07:57:03.162Z,15.18
2023-03-25T08:03:07.168Z,15.53
2023-03-25T08:09:12.564Z,15.77
2023-03-25T08:15:15.057Z,16.24
2023-03-25T08:21:17.537Z,15.97
2023-03-25T08:27:19.966Z,16.83
2023-03-25T08:33:40.537Z,17.91
2023-03-25T08:39:46.011Z,18.47
2023-03-25T08:45:51.663Z,18.96
2023-03-25T08:51:54.941Z,19.38
2023-03-25T08:57:57.402Z,19.73
2023-03-25T09:04:04.901Z,20.07
2023-03-25T09:10:14.483Z,20.34
2023-03-25T09:16:16.918Z,20.51
2023-03-25T09:22:26.832Z,20.71
2023-03-25T09:29:02.977Z,20.90
2023-03-25T09:35:07.478Z,20.35
2023-03-25T09:41:43.966Z,20.31
2023-03-25T09:48:27.732Z,19.97
2023-03-25T09:54:35.786Z,20.46
2023-03-25T10:00:45.750Z,21.46
2023-03-25T10:07:26.326Z,21.44
2023-03-25T10:13:50.988Z,21.19
2023-03-25T10:20:20.289Z,20.79
2023-03-25T10:26:37.395Z,21.23
2023-03-25T10:33:01.948Z,21.29
2023-03-25T10:39:35.170Z,21.18
2023-03-25T10:46:00.759Z,21.12
2023-03-25T10:52:05.225Z,20.87
2023-03-25T10:58:16.185Z,20.88
2023-03-25T11:04:24.453Z,20.91
2023-03-25T11:10:29.800Z,20.85
2023-03-25T11:16:47.874Z,20.83
2023-03-25T11:22:55.770Z,20.83
2023-03-25T11:29:07.296Z,20.50
2023-03-25T11:35:31.117Z,20.30
2023-03-25T11:42:08.492Z,20.71
2023-03-25T11:48:33.999Z,20.30
2023-03-25T11:54:38.439Z,20.68
2023-03-25T12:00:53.013Z,20.67
2023-03-25T12:07:15.103Z,20.46
2023-03-25T12:14:06.215Z,20.73
2023-03-25T12:20:46.373Z,20.69
2023-03-25T12:27:53.539Z,20.77
2023-03-25T12:34:48.282Z,20.84
2023-03-25T12:41:15.852Z,20.66
2023-03-25T12:47:26.077Z,20.29
2023-03-25T12:54:09.606Z,20.63
2023-03-25T13:00:47.851Z,20.83
2023-03-25T13:07:04.217Z,20.84
2023-03-25T13:13:17.719Z,20.36
2023-03-25T13:19:44.043Z,20.72
2023-03-25T13:26:25.340Z,20.68
2023-03-25T13:32:37.473Z,20.58
2023-03-25T13:38:48.105Z,20.11
2023-03-25T13:44:53.455Z,20.31
2023-03-25T13:50:58.946Z,20.13
2023-03-25T13:57:28.501Z,20.15
2023-03-25T14:03:43.041Z,20.00
2023-03-25T14:10:19.640Z,19.79
2023-03-25T14:16:28.183Z,19.21
2023-03-25T14:22:44.111Z,19.48
2023-03-25T14:28:48.118Z,18.92
2023-03-25T14:34:54.498Z,19.36
2023-03-25T14:41:03.734Z,19.31
2023-03-25T14:47:27.753Z,18.43
2023-03-25T14:53:31.217Z,19.11
2023-03-25T14:59:40.671Z,18.86
2023-03-25T15:05:46.227Z,18.79
2023-03-25T15:12:16.727Z,18.64
2023-03-25T15:18:45.279Z,18.74
2023-03-25T15:24:57.789Z,18.42
2023-03-25T15:31:13.301Z,18.24
2023-03-25T15:37:47.901Z,18.36
2023-03-25T15:44:05.536Z,18.02
2023-03-25T15:50:48.748Z,18.12
2023-03-25T15:56:55.085Z,17.91
2023-03-25T16:03:08.395Z,17.70
2023-03-25T16:09:27.264Z,17.35
2023-03-25T16:15:33.136Z,17.47
2023-03-25T16:21:41.412Z,17.38
2023-03-25T16:27:50.114Z,17.33
2023-03-25T16:33:52.627Z,17.20
2023-03-25T16:39:59.128Z,16.88
2023-03-25T16:46:07.050Z,17.07
2023-03-25T16:52:37.187Z,16.62
2023-03-25T16:58:57.943Z,16.86
2023-03-25T17:05:23.272Z,16.83
2023-03-25T17:11:30.130Z,16.71
2023-03-25T17:17:53.325Z,15.61
2023-03-25T17:23:57.776Z,15.41
2023-03-25T17:30:23.588Z,14.74
2023-03-25T17:36:32.937Z,14.63
2023-03-25T17:42:39.380Z,12.50
2023-03-25T17:48:41.826Z,14.09
2023-03-25T17:54:45.947Z,13.59
2023-03-25T18:00:50.037Z,13.05
2023-03-25T18:06:55.283Z,12.59
2023-03-25T18:12:57.755Z,12.68
2023-03-25T18:19:01.292Z,12.80
2023-03-25T18:25:05.728Z,12.96
2023-03-25T18:31:16.223Z,13.08
2023-03-25T18:37:20.972Z,12.21
2023-03-25T18:43:26.068Z,12.08
2023-03-25T18:49:28.650Z,12.55
2023-03-25T18:55:40.718Z,12.66
2023-03-25T19:01:50.097Z,12.67
2023-03-25T19:07:53.118Z,12.68
2023-03-25T19:13:58.564Z,12.57
2023-03-25T19:20:01.058Z,12.72
2023-03-25T19:26:06.051Z,12.66
2023-03-25T19:32:13.999Z,12.40
2023-03-25T19:38:20.644Z,12.48
2023-03-25T19:44:25.001Z,12.40
2023-03-25T19:50:35.501Z,12.41
2023-03-25T19:56:37.996Z,12.00
2023-03-25T20:03:02.662Z,10.91
2023-03-25T20:09:06.017Z,12.21
2023-03-25T20:15:10.497Z,12.01
2023-03-25T20:21:12.975Z,12.17
2023-03-25T20:27:15.419Z,11.94
2023-03-25T20:33:17.943Z,12.03
2023-03-25T20:39:21.421Z,11.56
2023-03-25T20:45:29.886Z,11.60
2023-03-25T20:51:32.345Z,12.50
2023-03-25T20:57:36.739Z,12.19
2023-03-25T21:03:39.311Z,12.27
2023-03-25T21:09:41.826Z,12.36
2023-03-25T21:15:46.057Z,11.93
2023-03-25T21:21:49.776Z,12.10
2023-03-25T21:27:53.267Z,12.08
2023-03-25T21:33:58.498Z,11.67
2023-03-25T21:40:02.223Z,11.75
2023-03-25T21:46:06.685Z,11.72
2023-03-25T21:52:13.246Z,11.58
2023-03-25T21:58:15.812Z,11.50
2023-03-25T22:04:20.165Z,9.36
2023-03-25T22:10:22.605Z,10.19
2023-03-25T22:16:27.954Z,9.09
2023-03-25T22:22:30.560Z,10.75
2023-03-25T22:28:32.604Z,10.97
2023-03-25T22:34:35.512Z,10.90
2023-03-25T22:40:37.330Z,10.96
2023-03-25T22:46:44.553Z,11.02
2023-03-25T22:52:49.971Z,10.97
2023-03-25T22:58:57.610Z,10.98
2023-03-25T23:04:59.918Z,9.89
2023-03-25T23:11:12.466Z,10.28
2023-03-25T23:17:14.938Z,10.86
2023-03-25T23:23:23.460Z,10.94
2023-03-25T23:29:27.737Z,10.88
2023-03-25T23:35:30.459Z,10.83
2023-03-25T23:41:32.923Z,10.45
2023-03-25T23:47:37.789Z,10.55
2023-03-25T23:53:41.892Z,8.74
2023-03-25T23:59:46.405Z,9.66
